Latest Weather Observations for Esperance

IDW60801

Issued at 4:34 pm WST Monday 27 February 2017 (issued every 30 minutes, with the page automatically refreshed every 10 minutes)

About weather observations | Map of weather stations | Latest weather observations for WA | Other Formats
Station Details ID: 009789 Name: ESPERANCE Lat: -33.83 Lon: 121.89 Height: 25.0 m
Data from the previous 72 hours. | See also: Recent months at Esperance
Date/Time
WST
Temp
°C
App
Temp
°C
Dew
Point
°C
Rel
Hum
%
Delta-T
°C
Wind Press
QNH
hPa
Press
MSL
hPa
Rain since
9am
mm
Dir  Spd
km/h
Gust
km/h
Spd
kts
Gust
kts
27/04:30pm 19.5 17.8 17.2 86 1.4 SSE 22 30 12 16 1015.3 1015.3 0.0
27/04:00pm 19.8 19.0 17.0 84 1.7 S 17 24 9 13 1016.1 1016.0 0.0
27/03:30pm 20.2 18.9 16.7 80 2.1 SSE 19 28 10 15 1015.9 1015.8 0.0
27/03:00pm 21.0 19.5 16.7 76 2.6 SSE 20 26 11 14 1015.7 1015.6 0.0
27/02:30pm 20.6 19.6 16.5 77 2.5 SE 17 22 9 12 1015.8 1015.7 0.0
27/02:00pm 20.3 18.8 16.8 80 2.1 SSE 20 26 11 14 1015.8 1015.7 0.0
27/01:30pm 20.2 18.7 16.7 80 2.1 SSE 20 24 11 13 1016.3 1016.2 0.0
27/01:00pm 20.8 18.6 16.9 78 2.4 SSE 24 30 13 16 1016.0 1015.9 0.0
27/12:46pm 20.8 18.8 16.5 76 2.6 SSE 22 28 12 15 1016.0 1015.9 0.0
27/12:30pm 20.6 19.2 16.5 77 2.5 SSE 19 24 10 13 1016.4 1016.3 0.0
27/12:00pm 20.5 19.6 16.9 80 2.2 S 17 22 9 12 1016.8 1016.7 0.0
27/11:30am 19.9 19.0 16.9 83 1.8 SSE 17 22 9 12 1016.9 1016.8 0.0
27/11:00am 20.6 20.6 17.3 81 2.0 SSE 13 19 7 10 1016.8 1016.7 0.0
27/10:30am 20.2 20.3 17.4 84 1.7 SSE 13 17 7 9 1016.7 1016.6 0.0
27/10:00am 19.9 19.9 17.1 84 1.7 SSE 13 19 7 10 1016.7 1016.6 0.0
27/09:30am 19.8 20.6 17.3 85 1.5 SSE 9 20 5 11 1016.7 1016.6 0.0
27/09:00am 19.4 18.5 16.9 85 1.5 SSE 17 22 9 12 1016.3 1016.2 3.4
27/08:30am 19.5 18.4 17.2 86 1.4 SSE 19 26 10 14 1016.1 1016.0 3.4
27/08:00am 19.2 19.3 17.4 89 1.1 S 13 19 7 10 1016.9 1016.8 3.4
27/07:30am 19.2 20.0 17.4 89 1.1 SSW 9 15 5 8 1016.6 1016.5 3.4
27/07:00am 19.1 18.3 17.1 88 1.2 SSE 17 20 9 11 1015.3 1015.3 3.4
27/06:30am 19.1 18.8 17.3 89 1.1 S 15 20 8 11 1015.3 1015.3 3.4
27/06:00am 19.1 20.0 17.5 90 1.0 W 9 15 5 8 1016.0 1015.9 3.4
27/05:30am 19.1 20.4 17.5 90 1.0 SW 7 13 4 7 1015.3 1015.3 3.4
27/05:00am 19.1 19.4 17.1 88 1.2 S 11 17 6 9 1014.3 1014.3 3.4
27/04:30am 19.0 20.1 17.2 89 1.1 S 7 13 4 7 1014.4 1014.4 3.4
27/04:00am 19.0 19.8 17.4 90 1.0 SSW 9 15 5 8 1014.1 1014.1 3.4
27/03:30am 19.0 20.2 17.4 90 1.0 SW 7 13 4 7 1014.4 1014.4 3.4
27/03:00am 19.0 19.7 17.0 88 1.2 SSW 9 15 5 8 1014.3 1014.3 3.4
27/02:30am 18.9 18.9 17.3 90 1.0 S 13 20 7 11 1013.4 1013.3 3.4
27/02:00am 18.8 19.2 17.2 90 1.0 SSW 11 20 6 11 1014.0 1014.0 3.4
27/01:30am 18.8 19.6 17.2 90 1.0 SW 9 13 5 7 1013.9 1013.9 3.4
27/01:09am 18.8 19.6 17.3 91 0.9 SSW 9 13 5 7 1014.2 1014.2 3.4
27/01:00am 18.9 18.2 17.3 90 1.0 SSE 17 26 9 14 1013.3 1013.2 3.4
27/12:30am 18.8 19.6 17.3 91 0.9 WSW 9 15 5 8 1014.3 1014.3 3.2
27/12:00am 18.7 19.6 17.6 93 0.7 SW 9 15 5 8 1014.2 1014.2 3.2
 
Date/Time
WST
Temp
°C
App
Temp
°C
Dew
Point
°C
Rel
Hum
%
Delta-T
°C
Wind Press
QNH
hPa
Press
MSL
hPa
Rain since
9am
mm
Dir  Spd
km/h
Gust
km/h
Spd
kts
Gust
kts
26/11:30pm 18.8 19.2 17.3 91 0.9 S 11 19 6 10 1014.1 1014.1 3.2
26/11:00pm 18.8 19.6 17.2 90 1.0 WSW 9 19 5 10 1015.2 1015.2 3.2
26/10:58pm 18.7 19.5 17.2 91 0.9 WSW 9 15 5 8 1015.2 1015.2 3.2
26/10:40pm 18.7 19.5 17.2 91 0.9 W 9 17 5 9 1015.2 1015.2 3.2
26/10:30pm 18.7 18.3 17.2 91 0.9 SSW 15 24 8 13 1014.6 1014.6 3.2
26/10:00pm 18.9 18.2 17.4 91 0.9 WSW 17 32 9 17 1015.2 1015.2 3.2
26/09:30pm 18.9 19.2 17.8 93 0.7 W 13 22 7 12 1015.2 1015.2 3.2
26/09:00pm 18.8 18.7 17.8 94 0.6 W 15 24 8 13 1015.0 1015.0 3.2
26/08:32pm 18.8 19.1 18.0 95 0.5 WSW 13 20 7 11 1014.2 1014.2 3.2
26/08:30pm 18.9 19.6 17.9 94 0.6 SW 11 20 6 11 1013.9 1013.9 3.2
26/08:00pm 19.4 19.0 18.1 92 0.8 SSE 17 22 9 12 1012.6 1012.5 3.2
26/07:51pm 19.3 18.3 18.0 92 0.8 SSE 20 24 11 13 1011.8 1011.7 3.2
26/07:30pm 19.0 17.9 17.7 92 0.8 SW 20 35 11 19 1013.0 1012.9 2.0
26/07:24pm 19.2 17.0 17.9 92 0.8 W 26 43 14 23 1013.4 1013.3 0.6
26/07:00pm 19.8 17.4 17.3 85 1.5 W 26 48 14 26 1014.3 1014.3 0.0
26/06:50pm 19.7 18.5 17.6 88 1.3 W 20 56 11 30 1013.9 1013.9 0.0
26/06:49pm 19.7 19.0 17.4 86 1.4 WSW 17 39 9 21 1013.8 1013.8 0.0
26/06:30pm 19.7 18.9 17.2 85 1.5 WSW 17 26 9 14 1011.8 1011.7 0.0
26/06:00pm 20.2 19.5 17.4 84 1.7 WSW 17 26 9 14 1011.5 1011.4 0.0
26/05:30pm 22.3 21.3 17.6 75 2.9 WSW 19 24 10 13 1010.8 1010.7 0.0
26/05:00pm 24.5 23.8 16.3 60 5.0 SW 15 22 8 12 1010.3 1010.2 0.0
26/04:30pm 25.8 25.2 15.6 53 6.2 SSW 13 22 7 12 1010.1 1010.0 0.0
26/04:00pm 24.9 22.5 12.8 47 7.0 SSE 17 20 9 11 1010.0 1009.9 0.0
26/03:30pm 24.2 23.2 16.5 62 4.7 SE 17 20 9 11 1010.1 1010.0 0.0
26/03:00pm 25.2 24.4 16.0 56 5.6 SSE 15 20 8 11 1010.4 1010.3 0.0
26/02:30pm 26.0 24.7 13.8 47 7.2 SSE 13 17 7 9 1010.7 1010.6 0.0
26/02:00pm 26.9 26.3 15.6 50 6.9 S 13 17 7 9 1010.9 1010.8 0.0
26/01:30pm 27.6 26.5 15.3 47 7.5 SSW 15 20 8 11 1011.1 1011.0 0.0
26/01:00pm 28.6 27.4 15.0 43 8.3 SSW 15 24 8 13 1011.1 1011.0 0.0
26/12:30pm 27.9 25.4 13.6 41 8.5 SSW 19 28 10 15 1011.4 1011.3 0.0
26/12:00pm 30.8 28.5 14.1 36 10.1 S 19 26 10 14 1011.4 1011.3 0.0
26/11:30am 34.7 30.5 9.7 21 14.4 N 22 32 12 17 1011.4 1011.3 0.0
26/11:00am 33.1 28.7 8.8 22 13.7 NNW 22 30 12 16 1011.8 1011.7 0.0
26/10:30am 32.5 27.9 9.7 24 13.0 N 24 32 13 17 1012.0 1011.9 0.0
26/10:00am 30.9 26.0 8.6 25 12.4 N 24 37 13 20 1012.3 1012.2 0.0
26/09:30am 30.0 24.9 9.2 27 11.6 N 26 41 14 22 1012.8 1012.7 0.0
26/09:00am 28.2 22.3 9.2 30 10.5 N 30 46 16 25 1012.8 1012.7 0.0
26/08:53am 28.1 22.7 9.6 31 10.3 N 28 46 15 25 1012.5 1012.4 0.0
26/08:30am 26.5 21.2 9.7 34 9.3 N 28 43 15 23 1012.5 1012.4 0.0
26/08:00am 25.0 19.8 10.2 39 8.2 N 28 37 15 20 1012.6 1012.5 0.0
26/07:30am 22.8 17.7 10.7 46 6.7 N 28 37 15 20 1012.8 1012.7 0.0
26/07:00am 21.0 17.2 11.0 52 5.5 N 22 35 12 19 1012.9 1012.8 0.0
26/06:30am 19.4 15.7 11.4 60 4.4 NNE 22 32 12 17 1012.9 1012.8 0.0
26/06:00am 18.9 15.7 11.4 61 4.1 NNE 19 26 10 14 1012.8 1012.7 0.0
26/05:30am 18.8 15.7 11.7 63 3.9 NNE 19 26 10 14 1012.6 1012.5 0.0
26/05:00am 19.1 16.1 12.1 64 3.9 NNE 19 28 10 15 1012.4 1012.3 0.0
26/04:30am 19.2 15.7 12.2 64 3.9 NNE 22 32 12 17 1012.3 1012.2 0.0
26/04:00am 19.0 16.1 13.0 68 3.4 NNE 20 28 11 15 1012.4 1012.3 0.0
26/03:30am 19.2 17.0 13.4 69 3.3 NNE 17 28 9 15 1012.5 1012.4 0.0
26/03:00am 19.5 15.7 13.6 68 3.4 NNE 26 35 14 19 1012.5 1012.4 0.0
26/02:30am 19.6 17.2 13.7 68 3.4 N 19 24 10 13 1012.5 1012.4 0.0
26/02:00am 19.8 17.8 13.9 69 3.4 N 17 22 9 12 1012.7 1012.6 0.0
26/01:30am 20.2 18.6 14.0 67 3.6 NNE 15 19 8 10 1012.9 1012.8 0.0
26/01:00am 20.7 18.7 14.0 65 3.9 NNE 17 24 9 13 1013.1 1013.0 0.0
26/12:30am 20.7 18.7 14.0 65 3.9 NNE 17 22 9 12 1013.5 1013.4 0.0
26/12:00am 21.2 19.2 13.8 62 4.3 NNE 17 24 9 13 1013.8 1013.8 0.0
 
Date/Time
WST
Temp
°C
App
Temp
°C
Dew
Point
°C
Rel
Hum
%
Delta-T
°C
Wind Press
QNH
hPa
Press
MSL
hPa
Rain since
9am
mm
Dir  Spd
km/h
Gust
km/h
Spd
kts
Gust
kts
25/11:30pm 21.0 18.6 13.9 64 4.1 NNE 19 24 10 13 1014.1 1014.1 0.0
25/11:00pm 21.2 19.3 14.2 64 4.1 NE 17 28 9 15 1014.3 1014.3 0.0
25/10:30pm 21.3 20.3 14.7 66 3.9 NE 13 20 7 11 1014.6 1014.6 0.0
25/10:00pm 21.2 20.8 15.1 68 3.6 NE 11 15 6 8 1014.8 1014.8 0.0
25/09:30pm 21.6 21.7 15.4 68 3.7 ENE 9 17 5 9 1015.1 1015.1 0.0
25/09:00pm 22.0 22.0 15.1 65 4.1 E 9 17 5 9 1015.2 1015.2 0.0
25/08:30pm 22.1 22.2 16.5 70 3.4 E 11 15 6 8 1015.3 1015.3 0.0
25/08:00pm 22.0 22.6 16.9 73 3.1 ESE 9 11 5 6 1015.2 1015.2 0.0
25/07:30pm 22.2 23.1 17.5 74 2.9 ESE 9 13 5 7 1014.9 1014.9 0.0
25/07:00pm 22.9 22.6 17.4 71 3.4 ESE 15 20 8 11 1014.6 1014.6 0.0
25/06:30pm 23.5 22.4 17.4 68 3.8 SE 19 28 10 15 1014.4 1014.4 0.0
25/06:00pm 24.4 23.3 17.3 64 4.4 SE 19 26 10 14 1014.3 1014.3 0.0
25/05:30pm 25.6 24.8 17.1 59 5.3 SE 17 24 9 13 1014.3 1014.3 0.0
25/05:00pm 25.9 23.8 16.3 55 5.9 SE 22 28 12 15 1014.6 1014.6 0.0
25/04:30pm 26.8 24.7 15.3 49 7.0 SE 20 30 11 16 1014.8 1014.8 0.0
25/04:00pm 27.4 25.4 15.4 48 7.3 SE 20 30 11 16 1015.1 1015.1 0.0
25/03:30pm 26.9 24.0 15.2 48 7.1 SE 24 32 13 17 1015.6 1015.5 0.0
25/03:00pm 27.4 24.5 15.0 46 7.5 SE 24 33 13 18 1016.0 1015.9 0.0
25/02:30pm 27.6 25.0 13.8 42 8.2 SE 20 28 11 15 1016.6 1016.5 0.0
25/02:00pm 28.4 25.9 13.6 40 8.8 SSE 19 26 10 14 1017.1 1017.0 0.0
25/01:30pm 31.4 28.2 8.5 24 12.7 NE 15 24 8 13 1017.6 1017.5 0.0
25/01:00pm 30.7 27.6 8.7 25 12.2 N 15 19 8 10 1018.2 1018.1 0.0
25/12:30pm 30.4 28.1 10.4 29 11.4 NNE 13 24 7 13 1018.8 1018.7 0.0
25/12:00pm 29.5 26.1 9.2 28 11.3 N 17 24 9 13 1019.2 1019.1 0.0
25/11:30am 28.6 26.0 12.0 35 9.6 N 17 24 9 13 1019.7 1019.6 0.0
25/11:00am 27.7 24.8 12.4 38 8.9 N 19 30 10 16 1020.1 1020.0 0.0
25/10:30am 26.4 23.4 12.4 41 8.1 N 20 28 11 15 1020.6 1020.5 0.0
25/10:00am 25.3 22.4 12.9 46 7.2 NNE 20 28 11 15 1021.0 1020.9 0.0
25/09:30am 23.8 20.9 13.0 50 6.2 N 20 26 11 14 1021.5 1021.4 0.0
25/09:00am 22.4 19.2 13.0 55 5.4 NNE 22 30 12 16 1021.6 1021.5 0.0
25/08:30am 21.0 17.7 12.9 60 4.6 N 22 30 12 16 1021.7 1021.6 0.0
25/08:00am 19.7 15.6 12.8 64 3.9 NNE 26 35 14 19 1021.6 1021.5 0.0
25/07:30am 18.6 15.0 13.1 70 3.1 NNE 24 35 13 19 1021.8 1021.7 0.0
25/07:00am 17.6 13.6 12.9 74 2.6 NNE 26 35 14 19 1022.0 1021.9 0.0
25/06:30am 16.9 12.9 12.9 77 2.2 NNE 26 37 14 20 1022.1 1022.0 0.0
25/06:00am 16.6 13.0 13.0 79 2.0 NNE 24 37 13 20 1022.0 1021.9 0.0
25/05:30am 16.7 12.7 12.9 78 2.1 NNE 26 35 14 19 1021.8 1021.7 0.0
25/05:00am 16.8 14.2 13.2 79 2.0 NNE 19 28 10 15 1021.9 1021.8 0.0
25/04:30am 16.7 14.6 13.5 81 1.8 NNE 17 22 9 12 1022.0 1021.9 0.0
25/04:00am 16.8 14.7 13.6 81 1.8 NNE 17 33 9 18 1022.3 1022.2 0.0
25/03:30am 16.8 14.4 13.8 82 1.7 NE 19 24 10 13 1022.5 1022.4 0.0
25/03:00am 16.5 14.9 14.0 85 1.4 NE 15 20 8 11 1022.8 1022.7 0.0
25/02:30am 16.6 14.3 14.1 85 1.4 NE 19 26 10 14 1022.9 1022.8 0.0
25/02:00am 16.7 14.4 14.1 85 1.5 NE 19 24 10 13 1023.1 1023.0 0.0
25/01:30am 16.6 15.1 14.1 85 1.4 NE 15 22 8 12 1023.1 1023.0 0.0
25/01:00am 16.8 14.9 14.2 85 1.5 NE 17 24 9 13 1023.1 1023.0 0.0
25/12:30am 16.8 15.7 14.2 85 1.5 ENE 13 22 7 12 1023.3 1023.2 0.0
25/12:00am 16.9 15.8 14.3 85 1.5 ENE 13 19 7 10 1023.5 1023.4 0.0
 
Date/Time
WST
Temp
°C
App
Temp
°C
Dew
Point
°C
Rel
Hum
%
Delta-T
°C
Wind Press
QNH
hPa
Press
MSL
hPa
Rain since
9am
mm
Dir  Spd
km/h
Gust
km/h
Spd
kts
Gust
kts
24/11:30pm 17.1 15.9 14.1 82 1.7 ENE 13 20 7 11 1023.6 1023.5 0.0
24/11:00pm 17.4 15.9 14.1 81 1.9 E 15 26 8 14 1023.9 1023.8 0.0
24/10:30pm 17.6 16.4 14.1 80 2.0 E 13 24 7 13 1024.0 1023.9 0.0
24/10:00pm 18.0 16.8 14.1 78 2.2 E 13 20 7 11 1024.2 1024.1 0.0
24/09:30pm 18.5 17.4 14.3 76 2.4 E 13 24 7 13 1024.2 1024.1 0.0
24/09:00pm 18.8 17.9 14.8 77 2.3 E 13 17 7 9 1024.0 1023.9 0.0
24/08:30pm 19.1 18.4 15.5 79 2.1 ESE 13 20 7 11 1023.7 1023.6 0.0
24/08:00pm 19.4 18.9 15.9 80 2.1 ESE 13 20 7 11 1023.5 1023.4 0.0
24/07:30pm 19.7 18.6 16.4 81 2.0 ESE 17 26 9 14 1023.1 1023.0 0.0
24/07:00pm 19.8 18.2 16.5 81 2.0 ESE 20 32 11 17 1022.8 1022.7 0.0
24/06:30pm 20.3 18.6 16.3 78 2.4 ESE 20 30 11 16 1022.8 1022.7 0.0
24/06:00pm 20.8 18.1 16.5 76 2.6 ESE 26 37 14 20 1022.8 1022.7 0.0
24/05:30pm 21.5 18.7 16.4 72 3.1 SE 26 35 14 19 1022.8 1022.7 0.0
24/05:00pm 22.2 19.9 16.6 70 3.4 SE 24 32 13 17 1022.9 1022.8 0.0

Other Formats:

Comma delimited format used in spreadsheet applications
http://www.bom.gov.au/fwo/IDW60801/IDW60801.94638.axf

JavaScript Object Notation format (JSON) in row-major order
http://www.bom.gov.au/fwo/IDW60801/IDW60801.94638.json